sensor_id;sensor_type;location;lat;lon;timestamp;temperature;humidity
45843;DHT22;31563;51.744;8.252;2023-05-23T00:02:27;26.90;50.30
45843;DHT22;31563;51.744;8.252;2023-05-23T00:04:56;26.80;50.30
45843;DHT22;31563;51.744;8.252;2023-05-23T00:07:24;26.80;50.20
45843;DHT22;31563;51.744;8.252;2023-05-23T00:09:53;26.80;50.20
45843;DHT22;31563;51.744;8.252;2023-05-23T00:12:21;26.80;50.20
45843;DHT22;31563;51.744;8.252;2023-05-23T00:14:49;26.70;50.20
45843;DHT22;31563;51.744;8.252;2023-05-23T00:17:20;26.70;50.20
45843;DHT22;31563;51.744;8.252;2023-05-23T00:19:51;26.70;50.10
45843;DHT22;31563;51.744;8.252;2023-05-23T00:22:21;26.70;50.20
45843;DHT22;31563;51.744;8.252;2023-05-23T00:24:50;26.70;50.20
45843;DHT22;31563;51.744;8.252;2023-05-23T00:27:18;26.60;50.10
45843;DHT22;31563;51.744;8.252;2023-05-23T00:29:46;26.60;50.10
45843;DHT22;31563;51.744;8.252;2023-05-23T00:32:14;26.60;50.10
45843;DHT22;31563;51.744;8.252;2023-05-23T00:34:43;26.60;50.10
45843;DHT22;31563;51.744;8.252;2023-05-23T00:37:12;26.50;50.00
45843;DHT22;31563;51.744;8.252;2023-05-23T00:39:40;26.50;50.10
45843;DHT22;31563;51.744;8.252;2023-05-23T00:42:09;26.50;50.10
45843;DHT22;31563;51.744;8.252;2023-05-23T00:44:37;26.50;50.10
45843;DHT22;31563;51.744;8.252;2023-05-23T00:47:05;26.40;50.10
45843;DHT22;31563;51.744;8.252;2023-05-23T00:49:34;26.50;50.10
45843;DHT22;31563;51.744;8.252;2023-05-23T00:52:04;26.40;50.00
45843;DHT22;31563;51.744;8.252;2023-05-23T00:54:33;26.40;50.00
45843;DHT22;31563;51.744;8.252;2023-05-23T00:57:01;26.40;50.00
45843;DHT22;31563;51.744;8.252;2023-05-23T00:59:30;26.40;50.00
45843;DHT22;31563;51.744;8.252;2023-05-23T01:01:59;26.40;50.00
45843;DHT22;31563;51.744;8.252;2023-05-23T01:04:28;26.40;50.00
45843;DHT22;31563;51.744;8.252;2023-05-23T01:06:56;26.40;50.00
45843;DHT22;31563;51.744;8.252;2023-05-23T01:09:28;26.30;49.90
45843;DHT22;31563;51.744;8.252;2023-05-23T01:12:07;26.30;49.90
45843;DHT22;31563;51.744;8.252;2023-05-23T01:14:40;26.30;49.90
45843;DHT22;31563;51.744;8.252;2023-05-23T01:17:13;26.30;49.90
45843;DHT22;31563;51.744;8.252;2023-05-23T01:19:52;26.20;49.90
45843;DHT22;31563;51.744;8.252;2023-05-23T01:22:32;26.20;49.80
45843;DHT22;31563;51.744;8.252;2023-05-23T01:25:13;26.20;49.80
45843;DHT22;31563;51.744;8.252;2023-05-23T01:27:52;26.20;49.90
45843;DHT22;31563;51.744;8.252;2023-05-23T01:30:23;26.20;49.90
45843;DHT22;31563;51.744;8.252;2023-05-23T01:32:53;26.20;49.90
45843;DHT22;31563;51.744;8.252;2023-05-23T01:35:24;26.20;49.80
45843;DHT22;31563;51.744;8.252;2023-05-23T01:37:53;26.10;49.80
45843;DHT22;31563;51.744;8.252;2023-05-23T01:40:22;26.20;49.80
45843;DHT22;31563;51.744;8.252;2023-05-23T01:42:54;26.10;49.80
45843;DHT22;31563;51.744;8.252;2023-05-23T01:45:25;26.10;49.80
45843;DHT22;31563;51.744;8.252;2023-05-23T01:47:55;26.10;49.80
45843;DHT22;31563;51.744;8.252;2023-05-23T01:50:23;26.10;49.80
45843;DHT22;31563;51.744;8.252;2023-05-23T01:52:52;26.10;49.80
45843;DHT22;31563;51.744;8.252;2023-05-23T01:55:22;26.10;49.90
45843;DHT22;31563;51.744;8.252;2023-05-23T01:57:55;26.10;49.90
45843;DHT22;31563;51.744;8.252;2023-05-23T02:00:24;26.10;49.80
45843;DHT22;31563;51.744;8.252;2023-05-23T02:02:52;26.00;49.80
45843;DHT22;31563;51.744;8.252;2023-05-23T02:05:20;26.00;49.80
45843;DHT22;31563;51.744;8.252;2023-05-23T02:07:49;26.00;49.90
45843;DHT22;31563;51.744;8.252;2023-05-23T02:10:18;26.00;49.80
45843;DHT22;31563;51.744;8.252;2023-05-23T02:12:46;26.00;49.80
45843;DHT22;31563;51.744;8.252;2023-05-23T02:15:16;26.00;49.80
45843;DHT22;31563;51.744;8.252;2023-05-23T02:17:44;25.90;49.80
45843;DHT22;31563;51.744;8.252;2023-05-23T02:20:13;25.90;49.80
45843;DHT22;31563;51.744;8.252;2023-05-23T02:22:45;25.90;49.80
45843;DHT22;31563;51.744;8.252;2023-05-23T02:25:13;25.90;49.80
45843;DHT22;31563;51.744;8.252;2023-05-23T02:27:41;25.90;49.80
45843;DHT22;31563;51.744;8.252;2023-05-23T02:30:10;25.90;49.80
45843;DHT22;31563;51.744;8.252;2023-05-23T02:32:40;25.80;49.70
45843;DHT22;31563;51.744;8.252;2023-05-23T02:35:08;25.80;49.80
45843;DHT22;31563;51.744;8.252;2023-05-23T02:37:37;25.80;49.80
45843;DHT22;31563;51.744;8.252;2023-05-23T02:40:06;25.80;49.80
45843;DHT22;31563;51.744;8.252;2023-05-23T02:42:34;25.80;49.80
45843;DHT22;31563;51.744;8.252;2023-05-23T02:45:03;25.80;49.80
45843;DHT22;31563;51.744;8.252;2023-05-23T02:47:31;25.70;49.80
45843;DHT22;31563;51.744;8.252;2023-05-23T02:50:01;25.70;49.70
45843;DHT22;31563;51.744;8.252;2023-05-23T02:52:29;25.70;49.80
45843;DHT22;31563;51.744;8.252;2023-05-23T02:54:57;25.70;49.80
45843;DHT22;31563;51.744;8.252;2023-05-23T02:57:25;25.60;49.80
45843;DHT22;31563;51.744;8.252;2023-05-23T02:59:53;25.70;49.80
45843;DHT22;31563;51.744;8.252;2023-05-23T03:02:22;25.60;49.70
45843;DHT22;31563;51.744;8.252;2023-05-23T03:04:50;25.60;49.80
45843;DHT22;31563;51.744;8.252;2023-05-23T03:07:19;25.60;49.80
45843;DHT22;31563;51.744;8.252;2023-05-23T03:09:54;25.60;49.80
45843;DHT22;31563;51.744;8.252;2023-05-23T03:12:22;25.60;49.80
45843;DHT22;31563;51.744;8.252;2023-05-23T03:14:51;25.50;49.70
45843;DHT22;31563;51.744;8.252;2023-05-23T03:17:19;25.50;50.40
45843;DHT22;31563;51.744;8.252;2023-05-23T03:19:47;25.50;49.80
45843;DHT22;31563;51.744;8.252;2023-05-23T03:22:16;25.50;49.80
45843;DHT22;31563;51.744;8.252;2023-05-23T03:24:45;25.50;49.80
45843;DHT22;31563;51.744;8.252;2023-05-23T03:27:13;25.50;49.80
45843;DHT22;31563;51.744;8.252;2023-05-23T03:29:42;25.50;49.80
45843;DHT22;31563;51.744;8.252;2023-05-23T03:32:10;25.40;49.70
45843;DHT22;31563;51.744;8.252;2023-05-23T03:34:39;25.40;49.70
45843;DHT22;31563;51.744;8.252;2023-05-23T03:37:07;25.40;49.70
45843;DHT22;31563;51.744;8.252;2023-05-23T03:39:35;25.40;49.70
45843;DHT22;31563;51.744;8.252;2023-05-23T03:42:07;25.50;49.70
45843;DHT22;31563;51.744;8.252;2023-05-23T03:44:35;25.50;49.60
45843;DHT22;31563;51.744;8.252;2023-05-23T03:47:04;25.50;49.60
45843;DHT22;31563;51.744;8.252;2023-05-23T03:49:33;25.50;49.60
45843;DHT22;31563;51.744;8.252;2023-05-23T03:52:01;25.40;49.50
45843;DHT22;31563;51.744;8.252;2023-05-23T03:54:30;25.40;49.40
45843;DHT22;31563;51.744;8.252;2023-05-23T03:56:58;25.40;49.60
45843;DHT22;31563;51.744;8.252;2023-05-23T03:59:28;25.40;49.40
45843;DHT22;31563;51.744;8.252;2023-05-23T04:01:57;25.40;49.40
45843;DHT22;31563;51.744;8.252;2023-05-23T04:04:27;25.40;49.50
45843;DHT22;31563;51.744;8.252;2023-05-23T04:06:56;25.40;49.40
45843;DHT22;31563;51.744;8.252;2023-05-23T04:09:24;25.40;49.40
45843;DHT22;31563;51.744;8.252;2023-05-23T04:11:53;25.30;49.30
45843;DHT22;31563;51.744;8.252;2023-05-23T04:14:21;25.30;49.40
45843;DHT22;31563;51.744;8.252;2023-05-23T04:16:52;25.30;49.30
45843;DHT22;31563;51.744;8.252;2023-05-23T04:19:21;25.30;49.40
45843;DHT22;31563;51.744;8.252;2023-05-23T04:21:49;25.30;49.30
45843;DHT22;31563;51.744;8.252;2023-05-23T04:24:18;25.30;49.30
45843;DHT22;31563;51.744;8.252;2023-05-23T04:26:46;25.30;49.40
45843;DHT22;31563;51.744;8.252;2023-05-23T04:29:15;25.30;49.40
45843;DHT22;31563;51.744;8.252;2023-05-23T04:31:43;25.20;49.50
45843;DHT22;31563;51.744;8.252;2023-05-23T04:34:14;25.10;49.40
45843;DHT22;31563;51.744;8.252;2023-05-23T04:36:43;25.00;49.60
45843;DHT22;31563;51.744;8.252;2023-05-23T04:39:11;24.90;49.70
45843;DHT22;31563;51.744;8.252;2023-05-23T04:41:39;24.80;50.00
45843;DHT22;31563;51.744;8.252;2023-05-23T04:44:07;24.70;50.10
45843;DHT22;31563;51.744;8.252;2023-05-23T04:46:36;24.60;50.50
45843;DHT22;31563;51.744;8.252;2023-05-23T04:49:08;24.60;50.50
45843;DHT22;31563;51.744;8.252;2023-05-23T04:51:38;24.50;50.70
45843;DHT22;31563;51.744;8.252;2023-05-23T04:54:06;24.40;50.90
45843;DHT22;31563;51.744;8.252;2023-05-23T04:56:34;24.40;51.00
45843;DHT22;31563;51.744;8.252;2023-05-23T04:59:02;24.40;51.20
45843;DHT22;31563;51.744;8.252;2023-05-23T05:01:31;24.30;51.40
45843;DHT22;31563;51.744;8.252;2023-05-23T05:04:00;24.30;51.50
45843;DHT22;31563;51.744;8.252;2023-05-23T05:06:29;24.20;51.60
45843;DHT22;31563;51.744;8.252;2023-05-23T05:08:58;24.20;51.90
45843;DHT22;31563;51.744;8.252;2023-05-23T05:11:26;24.10;51.80
45843;DHT22;31563;51.744;8.252;2023-05-23T05:13:55;24.00;52.10
45843;DHT22;31563;51.744;8.252;2023-05-23T05:16:23;24.10;52.60
45843;DHT22;31563;51.744;8.252;2023-05-23T05:18:51;24.10;52.40
45843;DHT22;31563;51.744;8.252;2023-05-23T05:21:19;24.00;52.30
45843;DHT22;31563;51.744;8.252;2023-05-23T05:23:47;24.00;52.40
45843;DHT22;31563;51.744;8.252;2023-05-23T05:26:17;24.00;52.60
45843;DHT22;31563;51.744;8.252;2023-05-23T05:28:45;23.90;52.50
45843;DHT22;31563;51.744;8.252;2023-05-23T05:31:13;23.90;52.60
45843;DHT22;31563;51.744;8.252;2023-05-23T05:33:42;23.90;52.80
45843;DHT22;31563;51.744;8.252;2023-05-23T05:36:11;23.80;52.80
45843;DHT22;31563;51.744;8.252;2023-05-23T05:38:40;23.80;52.80
45843;DHT22;31563;51.744;8.252;2023-05-23T05:41:08;23.80;52.90
45843;DHT22;31563;51.744;8.252;2023-05-23T05:43:37;23.70;52.90
45843;DHT22;31563;51.744;8.252;2023-05-23T05:46:05;23.70;53.40
45843;DHT22;31563;51.744;8.252;2023-05-23T05:48:34;23.80;54.20
45843;DHT22;31563;51.744;8.252;2023-05-23T05:51:02;23.80;53.70
45843;DHT22;31563;51.744;8.252;2023-05-23T05:53:30;23.80;53.60
45843;DHT22;31563;51.744;8.252;2023-05-23T05:55:59;23.80;53.60
45843;DHT22;31563;51.744;8.252;2023-05-23T05:58:27;23.90;53.80
45843;DHT22;31563;51.744;8.252;2023-05-23T06:00:56;23.90;53.70
45843;DHT22;31563;51.744;8.252;2023-05-23T06:03:25;23.90;53.50
45843;DHT22;31563;51.744;8.252;2023-05-23T06:05:54;23.90;53.60
45843;DHT22;31563;51.744;8.252;2023-05-23T06:08:23;23.90;53.50
45843;DHT22;31563;51.744;8.252;2023-05-23T06:10:51;23.90;53.40
45843;DHT22;31563;51.744;8.252;2023-05-23T06:13:19;23.90;53.30
45843;DHT22;31563;51.744;8.252;2023-05-23T06:15:48;23.90;53.30
45843;DHT22;31563;51.744;8.252;2023-05-23T06:18:17;23.90;53.10
45843;DHT22;31563;51.744;8.252;2023-05-23T06:20:45;23.90;53.10
45843;DHT22;31563;51.744;8.252;2023-05-23T06:23:14;23.90;53.10
45843;DHT22;31563;51.744;8.252;2023-05-23T06:25:42;24.00;53.10
45843;DHT22;31563;51.744;8.252;2023-05-23T06:28:10;24.00;53.10
45843;DHT22;31563;51.744;8.252;2023-05-23T06:30:38;23.90;53.00
45843;DHT22;31563;51.744;8.252;2023-05-23T06:33:07;23.90;52.90
45843;DHT22;31563;51.744;8.252;2023-05-23T06:35:37;23.90;52.60
45843;DHT22;31563;51.744;8.252;2023-05-23T06:38:05;23.80;53.00
45843;DHT22;31563;51.744;8.252;2023-05-23T06:40:33;23.80;53.50
45843;DHT22;31563;51.744;8.252;2023-05-23T06:43:01;23.80;53.80
45843;DHT22;31563;51.744;8.252;2023-05-23T06:45:29;23.90;53.90
45843;DHT22;31563;51.744;8.252;2023-05-23T06:48:00;24.00;53.80
45843;DHT22;31563;51.744;8.252;2023-05-23T06:50:28;24.00;53.60
45843;DHT22;31563;51.744;8.252;2023-05-23T06:52:58;24.10;53.40
45843;DHT22;31563;51.744;8.252;2023-05-23T06:55:26;24.10;53.30
45843;DHT22;31563;51.744;8.252;2023-05-23T06:57:54;24.10;53.10
45843;DHT22;31563;51.744;8.252;2023-05-23T07:00:22;24.10;53.10
45843;DHT22;31563;51.744;8.252;2023-05-23T07:02:51;24.10;53.10
45843;DHT22;31563;51.744;8.252;2023-05-23T07:05:19;24.10;53.10
45843;DHT22;31563;51.744;8.252;2023-05-23T07:07:48;24.10;53.10
45843;DHT22;31563;51.744;8.252;2023-05-23T07:10:17;24.10;53.00
45843;DHT22;31563;51.744;8.252;2023-05-23T07:12:45;24.10;53.10
45843;DHT22;31563;51.744;8.252;2023-05-23T07:15:14;24.00;53.10
45843;DHT22;31563;51.744;8.252;2023-05-23T07:17:42;24.10;53.10
45843;DHT22;31563;51.744;8.252;2023-05-23T07:20:10;24.20;53.10
45843;DHT22;31563;51.744;8.252;2023-05-23T07:22:38;24.20;52.90
45843;DHT22;31563;51.744;8.252;2023-05-23T07:25:07;24.20;52.70
45843;DHT22;31563;51.744;8.252;2023-05-23T07:27:37;24.20;52.60
45843;DHT22;31563;51.744;8.252;2023-05-23T07:30:06;24.30;52.70
45843;DHT22;31563;51.744;8.252;2023-05-23T07:32:35;24.30;52.50
45843;DHT22;31563;51.744;8.252;2023-05-23T07:35:04;24.20;52.40
45843;DHT22;31563;51.744;8.252;2023-05-23T07:37:32;24.30;52.60
45843;DHT22;31563;51.744;8.252;2023-05-23T07:40:00;24.40;52.50
45843;DHT22;31563;51.744;8.252;2023-05-23T07:42:30;24.40;52.30
45843;DHT22;31563;51.744;8.252;2023-05-23T07:44:59;24.40;52.30
45843;DHT22;31563;51.744;8.252;2023-05-23T07:47:28;24.40;52.20
45843;DHT22;31563;51.744;8.252;2023-05-23T07:49:56;24.50;52.30
45843;DHT22;31563;51.744;8.252;2023-05-23T07:52:24;24.50;52.10
45843;DHT22;31563;51.744;8.252;2023-05-23T07:54:52;24.60;52.00
45843;DHT22;31563;51.744;8.252;2023-05-23T07:57:21;24.60;51.80
45843;DHT22;31563;51.744;8.252;2023-05-23T07:59:50;24.70;51.80
45843;DHT22;31563;51.744;8.252;2023-05-23T08:02:20;24.70;51.70
45843;DHT22;31563;51.744;8.252;2023-05-23T08:04:48;24.70;51.60
45843;DHT22;31563;51.744;8.252;2023-05-23T08:07:16;24.70;51.60
45843;DHT22;31563;51.744;8.252;2023-05-23T08:09:45;24.80;51.60
45843;DHT22;31563;51.744;8.252;2023-05-23T08:12:14;24.80;51.40
45843;DHT22;31563;51.744;8.252;2023-05-23T08:14:42;24.80;51.40
45843;DHT22;31563;51.744;8.252;2023-05-23T08:17:18;24.90;51.40
45843;DHT22;31563;51.744;8.252;2023-05-23T08:19:47;24.80;51.30
45843;DHT22;31563;51.744;8.252;2023-05-23T08:22:16;24.90;51.40
45843;DHT22;31563;51.744;8.252;2023-05-23T08:24:44;24.90;51.30
45843;DHT22;31563;51.744;8.252;2023-05-23T08:27:12;24.90;51.30
45843;DHT22;31563;51.744;8.252;2023-05-23T08:29:40;24.80;51.20
45843;DHT22;31563;51.744;8.252;2023-05-23T08:32:10;24.90;51.20
45843;DHT22;31563;51.744;8.252;2023-05-23T08:34:39;24.90;51.30
45843;DHT22;31563;51.744;8.252;2023-05-23T08:37:09;24.90;51.40
45843;DHT22;31563;51.744;8.252;2023-05-23T08:39:37;24.90;51.40
45843;DHT22;31563;51.744;8.252;2023-05-23T08:42:05;24.90;51.40
45843;DHT22;31563;51.744;8.252;2023-05-23T08:44:34;24.90;51.30
45843;DHT22;31563;51.744;8.252;2023-05-23T08:47:03;24.90;51.20
45843;DHT22;31563;51.744;8.252;2023-05-23T08:49:32;24.90;51.30
45843;DHT22;31563;51.744;8.252;2023-05-23T08:52:01;24.90;51.20
45843;DHT22;31563;51.744;8.252;2023-05-23T08:54:31;24.90;51.30
45843;DHT22;31563;51.744;8.252;2023-05-23T08:57:00;24.90;51.30
45843;DHT22;31563;51.744;8.252;2023-05-23T08:59:29;24.90;51.40
45843;DHT22;31563;51.744;8.252;2023-05-23T09:01:59;24.90;51.30
45843;DHT22;31563;51.744;8.252;2023-05-23T09:04:27;24.80;51.20
45843;DHT22;31563;51.744;8.252;2023-05-23T09:06:58;24.90;51.40
45843;DHT22;31563;51.744;8.252;2023-05-23T09:09:26;24.90;51.30
45843;DHT22;31563;51.744;8.252;2023-05-23T09:11:57;24.90;51.30
45843;DHT22;31563;51.744;8.252;2023-05-23T09:14:26;24.90;51.40
45843;DHT22;31563;51.744;8.252;2023-05-23T09:16:59;24.80;51.30
45843;DHT22;31563;51.744;8.252;2023-05-23T09:19:30;24.90;51.40
45843;DHT22;31563;51.744;8.252;2023-05-23T09:22:01;24.80;51.30
45843;DHT22;31563;51.744;8.252;2023-05-23T09:24:33;24.80;51.20
45843;DHT22;31563;51.744;8.252;2023-05-23T09:27:05;24.80;51.40
45843;DHT22;31563;51.744;8.252;2023-05-23T09:29:36;24.80;51.50
45843;DHT22;31563;51.744;8.252;2023-05-23T09:32:12;24.70;51.50
45843;DHT22;31563;51.744;8.252;2023-05-23T09:34:41;24.80;51.50
45843;DHT22;31563;51.744;8.252;2023-05-23T09:37:11;24.90;51.60
45843;DHT22;31563;51.744;8.252;2023-05-23T09:39:46;24.90;51.40
45843;DHT22;31563;51.744;8.252;2023-05-23T09:42:20;24.90;51.30
45843;DHT22;31563;51.744;8.252;2023-05-23T09:44:48;24.90;51.30
45843;DHT22;31563;51.744;8.252;2023-05-23T09:47:17;25.00;51.20
45843;DHT22;31563;51.744;8.252;2023-05-23T09:49:45;25.00;51.10
45843;DHT22;31563;51.744;8.252;2023-05-23T09:52:13;24.90;51.10
45843;DHT22;31563;51.744;8.252;2023-05-23T09:54:42;24.90;51.10
45843;DHT22;31563;51.744;8.252;2023-05-23T09:57:13;25.00;51.20
45843;DHT22;31563;51.744;8.252;2023-05-23T09:59:44;25.10;51.10
45843;DHT22;31563;51.744;8.252;2023-05-23T10:02:15;25.10;50.90
45843;DHT22;31563;51.744;8.252;2023-05-23T10:04:45;25.10;50.70
45843;DHT22;31563;51.744;8.252;2023-05-23T10:07:18;25.10;50.60
45843;DHT22;31563;51.744;8.252;2023-05-23T10:09:53;25.10;50.70
45843;DHT22;31563;51.744;8.252;2023-05-23T10:12:40;25.20;50.60
45843;DHT22;31563;51.744;8.252;2023-05-23T10:15:14;25.20;50.60
45843;DHT22;31563;51.744;8.252;2023-05-23T10:17:54;25.20;50.60
45843;DHT22;31563;51.744;8.252;2023-05-23T10:20:28;25.20;50.40
45843;DHT22;31563;51.744;8.252;2023-05-23T10:22:59;25.20;50.50
45843;DHT22;31563;51.744;8.252;2023-05-23T10:25:28;25.20;50.60
45843;DHT22;31563;51.744;8.252;2023-05-23T10:27:57;25.20;50.50
45843;DHT22;31563;51.744;8.252;2023-05-23T10:30:31;25.30;50.20
45843;DHT22;31563;51.744;8.252;2023-05-23T10:32:59;25.30;50.30
45843;DHT22;31563;51.744;8.252;2023-05-23T10:35:39;25.30;50.20
45843;DHT22;31563;51.744;8.252;2023-05-23T10:38:17;25.30;50.00
45843;DHT22;31563;51.744;8.252;2023-05-23T10:40:56;25.30;50.10
45843;DHT22;31563;51.744;8.252;2023-05-23T10:43:30;25.20;50.10
45843;DHT22;31563;51.744;8.252;2023-05-23T10:46:00;25.30;50.20
45843;DHT22;31563;51.744;8.252;2023-05-23T10:48:32;25.30;50.10
45843;DHT22;31563;51.744;8.252;2023-05-23T10:51:02;25.40;50.40
45843;DHT22;31563;51.744;8.252;2023-05-23T10:53:33;25.60;50.20
45843;DHT22;31563;51.744;8.252;2023-05-23T10:56:04;25.70;49.80
45843;DHT22;31563;51.744;8.252;2023-05-23T10:58:33;25.90;49.80
45843;DHT22;31563;51.744;8.252;2023-05-23T11:01:05;26.10;49.10
45843;DHT22;31563;51.744;8.252;2023-05-23T11:03:37;26.10;48.80
45843;DHT22;31563;51.744;8.252;2023-05-23T11:06:37;26.20;48.70
45843;DHT22;31563;51.744;8.252;2023-05-23T11:09:11;26.10;48.50
45843;DHT22;31563;51.744;8.252;2023-05-23T11:11:52;26.10;48.60
45843;DHT22;31563;51.744;8.252;2023-05-23T11:14:31;26.10;49.00
45843;DHT22;31563;51.744;8.252;2023-05-23T11:17:14;26.40;49.30
45843;DHT22;31563;51.744;8.252;2023-05-23T11:19:55;27.00;49.30
45843;DHT22;31563;51.744;8.252;2023-05-23T11:22:27;28.30;47.70
45843;DHT22;31563;51.744;8.252;2023-05-23T11:24:57;28.60;45.90
45843;DHT22;31563;51.744;8.252;2023-05-23T11:27:26;28.70;45.00
45843;DHT22;31563;51.744;8.252;2023-05-23T11:30:02;28.40;44.70
45843;DHT22;31563;51.744;8.252;2023-05-23T11:32:32;28.00;42.60
45843;DHT22;31563;51.744;8.252;2023-05-23T11:35:01;27.40;41.30
45843;DHT22;31563;51.744;8.252;2023-05-23T11:37:30;27.20;41.50
45843;DHT22;31563;51.744;8.252;2023-05-23T11:39:59;27.20;41.30
45843;DHT22;31563;51.744;8.252;2023-05-23T11:42:47;27.50;41.40
45843;DHT22;31563;51.744;8.252;2023-05-23T11:45:15;28.00;39.10
45843;DHT22;31563;51.744;8.252;2023-05-23T11:47:44;28.00;38.90
45843;DHT22;31563;51.744;8.252;2023-05-23T11:50:14;28.00;39.20
45843;DHT22;31563;51.744;8.252;2023-05-23T11:52:42;28.10;39.60
45843;DHT22;31563;51.744;8.252;2023-05-23T11:55:12;28.30;39.70
45843;DHT22;31563;51.744;8.252;2023-05-23T11:57:40;28.40;39.60
45843;DHT22;31563;51.744;8.252;2023-05-23T12:00:09;28.30;39.70
45843;DHT22;31563;51.744;8.252;2023-05-23T12:02:38;28.20;39.70
45843;DHT22;31563;51.744;8.252;2023-05-23T12:05:10;28.10;39.80
45843;DHT22;31563;51.744;8.252;2023-05-23T12:07:39;28.00;40.10
45843;DHT22;31563;51.744;8.252;2023-05-23T12:10:09;27.90;40.30
45843;DHT22;31563;51.744;8.252;2023-05-23T12:12:37;27.90;40.60
45843;DHT22;31563;51.744;8.252;2023-05-23T12:15:08;28.00;40.60
45843;DHT22;31563;51.744;8.252;2023-05-23T12:17:37;27.90;40.70
45843;DHT22;31563;51.744;8.252;2023-05-23T12:20:06;27.80;39.40
45843;DHT22;31563;51.744;8.252;2023-05-23T12:22:36;27.70;39.60
45843;DHT22;31563;51.744;8.252;2023-05-23T12:25:07;27.90;40.40
45843;DHT22;31563;51.744;8.252;2023-05-23T12:27:35;28.50;40.70
45843;DHT22;31563;51.744;8.252;2023-05-23T12:30:05;28.70;39.90
45843;DHT22;31563;51.744;8.252;2023-05-23T12:32:38;28.90;40.10
45843;DHT22;31563;51.744;8.252;2023-05-23T12:35:08;29.50;39.60
45843;DHT22;31563;51.744;8.252;2023-05-23T12:37:39;29.50;39.30
45843;DHT22;31563;51.744;8.252;2023-05-23T12:40:10;29.60;39.30
45843;DHT22;31563;51.744;8.252;2023-05-23T12:42:48;29.70;39.40
45843;DHT22;31563;51.744;8.252;2023-05-23T12:45:18;29.90;39.30
45843;DHT22;31563;51.744;8.252;2023-05-23T12:47:46;30.10;39.00
45843;DHT22;31563;51.744;8.252;2023-05-23T12:50:16;30.20;39.30
45843;DHT22;31563;51.744;8.252;2023-05-23T12:52:46;30.20;39.00
45843;DHT22;31563;51.744;8.252;2023-05-23T12:55:14;30.50;39.60
45843;DHT22;31563;51.744;8.252;2023-05-23T12:57:42;31.50;39.40
45843;DHT22;31563;51.744;8.252;2023-05-23T13:00:11;32.30;38.70
45843;DHT22;31563;51.744;8.252;2023-05-23T13:02:39;32.60;37.40
45843;DHT22;31563;51.744;8.252;2023-05-23T13:05:08;32.10;37.70
45843;DHT22;31563;51.744;8.252;2023-05-23T13:07:36;31.70;38.70
45843;DHT22;31563;51.744;8.252;2023-05-23T13:10:07;32.00;40.50
45843;DHT22;31563;51.744;8.252;2023-05-23T13:12:35;33.10;39.60
45843;DHT22;31563;51.744;8.252;2023-05-23T13:15:05;33.90;38.20
45843;DHT22;31563;51.744;8.252;2023-05-23T13:17:33;34.00;36.70
45843;DHT22;31563;51.744;8.252;2023-05-23T13:20:01;33.60;37.20
45843;DHT22;31563;51.744;8.252;2023-05-23T13:22:31;33.70;36.90
45843;DHT22;31563;51.744;8.252;2023-05-23T13:24:59;33.40;36.40
45843;DHT22;31563;51.744;8.252;2023-05-23T13:27:28;32.90;36.60
45843;DHT22;31563;51.744;8.252;2023-05-23T13:29:57;32.40;37.20
45843;DHT22;31563;51.744;8.252;2023-05-23T13:32:25;32.50;38.40
45843;DHT22;31563;51.744;8.252;2023-05-23T13:34:53;32.70;37.50
45843;DHT22;31563;51.744;8.252;2023-05-23T13:37:21;32.40;37.50
45843;DHT22;31563;51.744;8.252;2023-05-23T13:39:50;32.20;37.70
45843;DHT22;31563;51.744;8.252;2023-05-23T13:42:18;31.90;38.10
45843;DHT22;31563;51.744;8.252;2023-05-23T13:44:47;31.80;38.50
45843;DHT22;31563;51.744;8.252;2023-05-23T13:47:16;31.80;39.10
45843;DHT22;31563;51.744;8.252;2023-05-23T13:49:44;31.80;38.80
45843;DHT22;31563;51.744;8.252;2023-05-23T13:52:13;31.70;38.70
45843;DHT22;31563;51.744;8.252;2023-05-23T13:54:41;31.60;39.10
45843;DHT22;31563;51.744;8.252;2023-05-23T13:57:09;32.20;39.60
45843;DHT22;31563;51.744;8.252;2023-05-23T13:59:38;32.30;38.00
45843;DHT22;31563;51.744;8.252;2023-05-23T14:02:07;32.10;38.00
45843;DHT22;31563;51.744;8.252;2023-05-23T14:04:36;31.90;38.10
45843;DHT22;31563;51.744;8.252;2023-05-23T14:07:04;31.80;38.40
45843;DHT22;31563;51.744;8.252;2023-05-23T14:09:32;31.70;38.50
45843;DHT22;31563;51.744;8.252;2023-05-23T14:12:00;31.70;38.10
45843;DHT22;31563;51.744;8.252;2023-05-23T14:14:29;32.40;38.40
45843;DHT22;31563;51.744;8.252;2023-05-23T14:16:57;32.60;37.80
45843;DHT22;31563;51.744;8.252;2023-05-23T14:19:26;32.40;33.80
45843;DHT22;31563;51.744;8.252;2023-05-23T14:21:54;31.40;31.60
45843;DHT22;31563;51.744;8.252;2023-05-23T14:24:23;30.60;31.40
45843;DHT22;31563;51.744;8.252;2023-05-23T14:26:51;30.00;31.90
45843;DHT22;31563;51.744;8.252;2023-05-23T14:29:19;29.60;32.00
45843;DHT22;31563;51.744;8.252;2023-05-23T14:31:47;29.70;33.20
45843;DHT22;31563;51.744;8.252;2023-05-23T14:34:16;30.20;32.60
45843;DHT22;31563;51.744;8.252;2023-05-23T14:36:45;30.40;32.60
45843;DHT22;31563;51.744;8.252;2023-05-23T14:39:13;30.70;33.30
45843;DHT22;31563;51.744;8.252;2023-05-23T14:41:42;31.20;33.10
45843;DHT22;31563;51.744;8.252;2023-05-23T14:44:12;31.70;32.90
45843;DHT22;31563;51.744;8.252;2023-05-23T14:46:40;31.90;32.40
45843;DHT22;31563;51.744;8.252;2023-05-23T14:49:14;31.90;32.40
45843;DHT22;31563;51.744;8.252;2023-05-23T14:51:42;32.00;33.10
45843;DHT22;31563;51.744;8.252;2023-05-23T14:54:18;32.20;33.10
45843;DHT22;31563;51.744;8.252;2023-05-23T14:56:46;32.50;33.30
45843;DHT22;31563;51.744;8.252;2023-05-23T14:59:17;32.80;33.10
45843;DHT22;31563;51.744;8.252;2023-05-23T15:01:45;33.20;33.10
45843;DHT22;31563;51.744;8.252;2023-05-23T15:04:14;33.60;33.10
45843;DHT22;31563;51.744;8.252;2023-05-23T15:06:42;33.80;32.90
45843;DHT22;31563;51.744;8.252;2023-05-23T15:09:11;34.10;32.80
45843;DHT22;31563;51.744;8.252;2023-05-23T15:11:40;34.00;32.70
45843;DHT22;31563;51.744;8.252;2023-05-23T15:14:10;34.30;33.80
45843;DHT22;31563;51.744;8.252;2023-05-23T15:16:38;34.60;33.00
45843;DHT22;31563;51.744;8.252;2023-05-23T15:19:10;34.70;32.70
45843;DHT22;31563;51.744;8.252;2023-05-23T15:21:38;34.40;32.40
45843;DHT22;31563;51.744;8.252;2023-05-23T15:24:17;34.10;33.00
45843;DHT22;31563;51.744;8.252;2023-05-23T15:26:46;34.00;33.60
45843;DHT22;31563;51.744;8.252;2023-05-23T15:29:14;34.10;33.40
45843;DHT22;31563;51.744;8.252;2023-05-23T15:31:44;34.10;33.10
45843;DHT22;31563;51.744;8.252;2023-05-23T15:34:12;33.70;32.80
45843;DHT22;31563;51.744;8.252;2023-05-23T15:36:40;33.30;33.30
45843;DHT22;31563;51.744;8.252;2023-05-23T15:39:09;33.00;33.80
45843;DHT22;31563;51.744;8.252;2023-05-23T15:41:38;32.70;34.20
45843;DHT22;31563;51.744;8.252;2023-05-23T15:44:08;32.50;34.70
45843;DHT22;31563;51.744;8.252;2023-05-23T15:46:40;32.40;35.10